createdAt,value
2018-06-05T00:00:37.239Z,24.37
2018-06-05T00:03:04.843Z,25.70
2018-06-05T00:05:32.090Z,25.97
2018-06-05T00:07:59.195Z,25.93
2018-06-05T00:10:26.297Z,25.33
2018-06-05T00:12:53.452Z,26.37
2018-06-05T00:15:20.552Z,26.17
2018-06-05T00:17:47.737Z,26.17
2018-06-05T00:20:15.390Z,26.70
2018-06-05T00:22:42.501Z,26.77
2018-06-05T00:25:09.708Z,26.30
2018-06-05T00:27:36.854Z,28.80
2018-06-05T00:30:04.211Z,27.90
2018-06-05T00:32:31.327Z,29.03
2018-06-05T00:34:58.498Z,28.93
2018-06-05T00:37:26.487Z,28.50
2018-06-05T00:39:53.618Z,30.83
2018-06-05T00:42:21.041Z,31.00
2018-06-05T00:44:48.167Z,31.63
2018-06-05T00:47:25.102Z,33.93
2018-06-05T00:49:52.231Z,32.50
2018-06-05T00:52:19.401Z,32.27
2018-06-05T00:54:46.675Z,31.47
2018-06-05T00:57:13.790Z,34.50
2018-06-05T00:59:40.945Z,33.20
2018-06-05T01:02:08.763Z,35.10
2018-06-05T01:04:35.909Z,35.50
2018-06-05T01:07:04.008Z,35.00
2018-06-05T01:09:31.236Z,34.83
2018-06-05T01:11:58.401Z,37.57
2018-06-05T01:14:25.514Z,35.83
2018-06-05T01:16:52.661Z,35.97
2018-06-05T01:19:19.807Z,35.27
2018-06-05T01:21:47.020Z,35.30
2018-06-05T01:24:14.210Z,35.10
2018-06-05T01:26:41.307Z,35.67
2018-06-05T01:29:08.437Z,34.63
2018-06-05T01:31:35.811Z,34.97
2018-06-05T01:34:02.923Z,36.53
2018-06-05T01:36:30.084Z,34.13
2018-06-05T01:38:57.272Z,34.27
2018-06-05T01:41:24.378Z,35.03
2018-06-05T01:43:51.567Z,34.43
2018-06-05T01:46:18.713Z,33.93
2018-06-05T01:48:45.844Z,34.47
2018-06-05T01:51:12.953Z,33.63
2018-06-05T01:53:40.220Z,33.50
2018-06-05T01:56:07.341Z,34.63
2018-06-05T01:58:34.481Z,34.37
2018-06-05T02:01:01.662Z,34.73
2018-06-05T02:03:28.864Z,32.43
2018-06-05T02:05:55.959Z,32.37
2018-06-05T02:08:23.112Z,36.10
2018-06-05T02:10:50.225Z,32.07
2018-06-05T02:13:17.333Z,30.93
2018-06-05T02:15:44.491Z,32.27
2018-06-05T02:18:11.628Z,30.87
2018-06-05T02:20:38.756Z,31.53
2018-06-05T02:23:05.967Z,32.37
2018-06-05T02:25:33.086Z,30.90
2018-06-05T02:28:00.200Z,31.87
2018-06-05T02:30:27.351Z,30.93
2018-06-05T02:32:54.530Z,32.47
2018-06-05T02:35:21.655Z,31.23
2018-06-05T02:37:48.828Z,32.67
2018-06-05T02:40:15.989Z,33.53
2018-06-05T02:42:43.140Z,31.13
2018-06-05T02:45:10.281Z,32.30
2018-06-05T02:47:37.403Z,32.70
2018-06-05T02:50:04.557Z,31.23
2018-06-05T02:52:31.753Z,31.90
2018-06-05T02:54:58.871Z,32.03
2018-06-05T02:57:25.995Z,31.00
2018-06-05T02:59:53.172Z,31.97
2018-06-05T03:02:20.337Z,31.93
2018-06-05T03:04:47.465Z,30.80
2018-06-05T03:07:14.578Z,30.97
2018-06-05T03:09:42.475Z,31.30
2018-06-05T03:12:09.617Z,32.57
2018-06-05T03:14:37.328Z,30.87
2018-06-05T03:17:04.469Z,30.90
2018-06-05T03:19:31.604Z,30.47
2018-06-05T03:21:58.789Z,30.80
2018-06-05T03:24:25.938Z,29.87
2018-06-05T03:26:53.082Z,31.23
2018-06-05T03:29:20.296Z,29.93
2018-06-05T03:31:47.408Z,30.03
2018-06-05T03:34:14.552Z,28.07
2018-06-05T03:36:41.730Z,28.70
2018-06-05T03:39:08.896Z,28.57
2018-06-05T03:41:36.029Z,29.67
2018-06-05T03:44:03.283Z,30.33
2018-06-05T03:46:30.636Z,29.17
2018-06-05T03:48:57.756Z,29.07
2018-06-05T03:51:24.950Z,28.33
2018-06-05T03:53:52.099Z,28.90
2018-06-05T03:56:19.703Z,31.33
2018-06-05T03:58:46.899Z,28.23
2018-06-05T04:01:13.996Z,29.50
2018-06-05T04:03:41.158Z,27.40
2018-06-05T04:06:08.320Z,29.13
2018-06-05T04:08:35.423Z,29.37
2018-06-05T04:11:02.815Z,28.63
2018-06-05T04:13:30.101Z,28.97
2018-06-05T04:15:57.296Z,27.17
2018-06-05T04:18:24.492Z,27.53
2018-06-05T04:20:51.620Z,27.87
2018-06-05T04:23:18.777Z,27.20
2018-06-05T04:25:45.879Z,27.73
2018-06-05T04:28:13.035Z,26.40
2018-06-05T04:30:40.218Z,27.10
2018-06-05T04:33:07.536Z,26.40
2018-06-05T04:35:34.732Z,27.33
2018-06-05T04:38:02.013Z,28.57
2018-06-05T04:40:29.184Z,26.70
2018-06-05T04:42:56.372Z,26.93
2018-06-05T04:45:23.459Z,25.60
2018-06-05T04:47:50.644Z,25.07
2018-06-05T04:50:18.065Z,26.37
2018-06-05T04:52:45.215Z,25.80
2018-06-05T04:55:12.347Z,24.97
2018-06-05T04:57:39.499Z,25.00
2018-06-05T05:00:06.643Z,24.53
2018-06-05T05:02:33.829Z,26.20
2018-06-05T05:05:00.988Z,23.87
2018-06-05T05:07:28.139Z,23.73
2018-06-05T05:09:55.261Z,24.17
2018-06-05T05:12:22.430Z,23.20
2018-06-05T05:14:49.532Z,22.87
2018-06-05T05:17:16.666Z,25.97
2018-06-05T05:19:43.816Z,22.07
2018-06-05T05:22:10.932Z,21.80
2018-06-05T05:24:38.072Z,21.33
2018-06-05T05:27:05.234Z,20.87
2018-06-05T05:29:32.367Z,21.77
2018-06-05T05:31:59.475Z,21.27
2018-06-05T05:34:26.679Z,21.17
2018-06-05T05:36:54.672Z,19.70
2018-06-05T05:39:21.802Z,17.97
2018-06-05T05:41:48.987Z,18.57
2018-06-05T05:44:16.154Z,19.07
2018-06-05T05:46:43.315Z,17.33
2018-06-05T05:49:10.550Z,17.10
2018-06-05T05:51:37.666Z,19.53
2018-06-05T05:54:04.793Z,21.40
2018-06-05T05:56:31.959Z,18.97
2018-06-05T05:58:59.088Z,19.43
2018-06-05T06:01:26.415Z,18.97
2018-06-05T06:03:53.595Z,17.60
2018-06-05T06:06:20.707Z,19.63
2018-06-05T06:08:47.864Z,20.10
2018-06-05T06:11:15.035Z,19.77
2018-06-05T06:13:42.157Z,17.43
2018-06-05T06:16:09.418Z,18.13
2018-06-05T06:18:36.607Z,18.13
2018-06-05T06:21:03.730Z,18.90
2018-06-05T06:23:30.860Z,18.40
2018-06-05T06:25:58.021Z,18.20
2018-06-05T06:28:25.145Z,18.03
2018-06-05T06:30:52.281Z,17.63
2018-06-05T06:33:19.452Z,18.20
2018-06-05T06:35:46.578Z,17.33
2018-06-05T06:38:13.940Z,17.07
2018-06-05T06:40:41.076Z,18.20
2018-06-05T06:43:08.165Z,18.97
2018-06-05T06:45:35.325Z,18.00
2018-06-05T06:48:02.549Z,18.77
2018-06-05T06:50:29.778Z,16.20
2018-06-05T06:52:56.930Z,18.20
2018-06-05T06:55:24.110Z,17.73
2018-06-05T06:57:51.339Z,19.70
2018-06-05T07:00:18.440Z,17.67
2018-06-05T07:02:45.739Z,19.07
2018-06-05T07:05:12.867Z,17.67
2018-06-05T07:07:40.071Z,16.77
2018-06-05T07:10:07.916Z,17.23
2018-06-05T07:12:35.002Z,19.13
2018-06-05T07:15:02.201Z,19.33
2018-06-05T07:17:30.486Z,18.90
2018-06-05T07:19:57.605Z,19.23
2018-06-05T07:22:24.800Z,18.47
2018-06-05T07:24:51.964Z,18.63
2018-06-05T07:27:19.123Z,18.00
2018-06-05T07:29:46.228Z,18.47
2018-06-05T07:32:13.601Z,19.33
2018-06-05T07:34:40.699Z,17.93
2018-06-05T07:37:08.224Z,17.77
2018-06-05T07:39:35.682Z,18.77
2018-06-05T07:42:02.887Z,17.67
2018-06-05T07:44:29.994Z,18.00
2018-06-05T07:46:57.180Z,17.23
2018-06-05T07:49:24.361Z,16.43
2018-06-05T07:51:51.559Z,17.23
2018-06-05T07:54:18.703Z,18.47
2018-06-05T07:56:45.787Z,17.33
2018-06-05T07:59:13.727Z,18.57
2018-06-05T08:01:40.902Z,18.70
2018-06-05T08:04:08.136Z,19.07
2018-06-05T08:06:35.483Z,17.57
2018-06-05T08:09:03.264Z,17.07
2018-06-05T08:11:30.388Z,18.07
2018-06-05T08:13:57.547Z,18.80
2018-06-05T08:16:24.819Z,16.40
2018-06-05T08:18:51.962Z,19.30
2018-06-05T08:21:19.324Z,18.30
2018-06-05T08:23:46.491Z,20.10
2018-06-05T08:26:13.632Z,17.60
2018-06-05T08:28:40.866Z,17.23
2018-06-05T08:31:08.384Z,17.67
2018-06-05T08:33:35.497Z,16.00
2018-06-05T08:36:02.676Z,15.53
2018-06-05T08:38:29.909Z,14.93
2018-06-05T08:40:57.348Z,15.33
2018-06-05T08:43:24.495Z,16.40
2018-06-05T08:45:51.654Z,17.27
2018-06-05T08:48:18.773Z,15.77
2018-06-05T08:50:45.881Z,14.97
2018-06-05T08:53:13.152Z,17.33
2018-06-05T08:55:40.321Z,14.43
2018-06-05T08:58:07.526Z,13.20
2018-06-05T09:00:34.678Z,14.73
2018-06-05T09:03:01.773Z,15.47
2018-06-05T09:05:28.963Z,14.83
2018-06-05T09:07:56.144Z,15.70
2018-06-05T09:10:23.246Z,16.07
2018-06-05T09:12:50.837Z,14.63
2018-06-05T09:15:19.284Z,14.43
2018-06-05T09:17:47.316Z,19.17
2018-06-05T09:20:14.624Z,16.33
2018-06-05T09:22:41.807Z,18.27
2018-06-05T09:25:09.030Z,14.97
2018-06-05T09:27:36.251Z,19.10
2018-06-05T09:30:03.567Z,17.27
2018-06-05T09:32:30.972Z,14.83
2018-06-05T09:34:58.101Z,16.23
2018-06-05T09:37:25.259Z,15.20
2018-06-05T09:39:52.370Z,17.83
2018-06-05T09:42:19.567Z,17.23
2018-06-05T09:44:46.742Z,17.47
2018-06-05T09:47:13.887Z,14.60
2018-06-05T09:49:40.986Z,15.83
2018-06-05T09:52:08.157Z,19.87
2018-06-05T09:54:35.985Z,15.43
2018-06-05T09:57:03.101Z,16.43
2018-06-05T09:59:31.348Z,17.27
2018-06-05T10:01:58.498Z,17.03
2018-06-05T10:04:25.605Z,17.63
2018-06-05T10:06:52.857Z,18.33
2018-06-05T10:09:20.178Z,14.77
2018-06-05T10:11:47.324Z,17.67
2018-06-05T10:14:14.650Z,16.60
2018-06-05T10:16:41.751Z,15.47
2018-06-05T10:19:09.736Z,16.60
2018-06-05T10:21:37.528Z,16.20
2018-06-05T10:24:04.724Z,18.13
2018-06-05T10:26:31.843Z,25.53
2018-06-05T10:28:59.147Z,16.13
2018-06-05T10:31:26.457Z,19.00
2018-06-05T10:33:53.533Z,17.13
2018-06-05T10:36:20.721Z,16.90
2018-06-05T10:38:48.906Z,16.77
2018-06-05T10:41:16.034Z,16.87
2018-06-05T10:43:43.332Z,15.83
2018-06-05T10:46:11.670Z,16.27
2018-06-05T10:48:38.758Z,17.00
2018-06-05T10:51:05.970Z,17.43
2018-06-05T10:53:34.474Z,20.80
2018-06-05T10:56:01.648Z,17.27
2018-06-05T10:58:28.900Z,18.30
2018-06-05T11:00:56.013Z,18.90
2018-06-05T11:03:23.099Z,18.73
2018-06-05T11:05:52.226Z,17.43
2018-06-05T11:08:19.443Z,18.57
2018-06-05T11:10:46.548Z,18.17
2018-06-05T11:13:13.693Z,19.23
2018-06-05T11:15:40.781Z,20.40
2018-06-05T11:18:08.575Z,20.10
2018-06-05T11:20:35.776Z,20.93
2018-06-05T11:23:03.098Z,20.70
2018-06-05T11:25:30.580Z,22.60
2018-06-05T11:27:57.758Z,19.80
2018-06-05T11:30:24.873Z,19.73
2018-06-05T11:32:51.964Z,20.65
2018-06-05T11:35:20.087Z,23.37
2018-06-05T11:37:47.218Z,19.00
2018-06-05T11:40:14.334Z,19.33
2018-06-05T11:42:41.512Z,21.73
2018-06-05T11:45:09.614Z,20.00
2018-06-05T11:47:36.818Z,21.63
2018-06-05T11:50:04.017Z,21.27
2018-06-05T11:52:31.168Z,21.93
2018-06-05T11:54:58.951Z,22.00
2018-06-05T11:57:26.163Z,21.50
2018-06-05T11:59:53.334Z,21.43
2018-06-05T12:02:20.499Z,23.03
2018-06-05T12:04:47.673Z,42.67
2018-06-05T12:07:15.146Z,21.53
2018-06-05T12:09:42.267Z,23.03
2018-06-05T12:12:09.416Z,21.50
2018-06-05T12:14:36.584Z,21.40
2018-06-05T12:17:03.772Z,21.70
2018-06-05T12:19:30.933Z,20.07
2018-06-05T12:21:58.086Z,21.07
2018-06-05T12:24:25.191Z,21.73
2018-06-05T12:26:53.357Z,20.63
2018-06-05T12:29:20.731Z,20.67
2018-06-05T12:31:47.874Z,23.43
2018-06-05T12:34:15.297Z,22.33
2018-06-05T12:36:42.472Z,22.47
2018-06-05T12:39:09.598Z,22.13
2018-06-05T12:41:36.894Z,23.13
2018-06-05T12:44:04.301Z,22.10
2018-06-05T12:46:31.579Z,20.93
2018-06-05T12:48:58.781Z,21.37
2018-06-05T12:51:25.929Z,19.77
2018-06-05T12:53:53.047Z,18.17
2018-06-05T12:56:20.309Z,19.60
2018-06-05T12:58:47.522Z,21.33
2018-06-05T13:01:14.655Z,20.57
2018-06-05T13:03:41.835Z,18.53
2018-06-05T13:06:08.965Z,18.60
2018-06-05T13:08:36.128Z,16.43
2018-06-05T13:11:03.372Z,17.97
2018-06-05T13:13:31.093Z,16.97
2018-06-05T13:15:58.305Z,18.60
2018-06-05T13:18:25.474Z,18.87
2018-06-05T13:20:52.563Z,20.17
2018-06-05T13:23:19.893Z,17.87
2018-06-05T13:25:47.048Z,17.00
2018-06-05T13:28:14.137Z,19.30
2018-06-05T13:30:41.993Z,17.97
2018-06-05T13:33:09.151Z,18.27
2018-06-05T13:35:36.283Z,18.17
2018-06-05T13:38:03.411Z,21.50
2018-06-05T13:40:30.812Z,18.00
2018-06-05T13:42:58.813Z,17.57
2018-06-05T13:45:25.998Z,16.20
2018-06-05T13:47:53.177Z,16.67
2018-06-05T13:50:20.394Z,17.87
2018-06-05T13:52:47.547Z,13.77
2018-06-05T13:55:14.706Z,14.93
2018-06-05T13:57:42.063Z,15.37
2018-06-05T14:00:09.203Z,14.40
2018-06-05T14:02:36.366Z,13.37
2018-06-05T14:05:03.593Z,12.90
2018-06-05T14:07:30.745Z,13.10
2018-06-05T14:09:57.908Z,14.27
2018-06-05T14:12:25.077Z,13.43
2018-06-05T14:14:52.234Z,15.10
2018-06-05T14:17:20.507Z,14.83
2018-06-05T14:19:47.664Z,14.27
2018-06-05T14:22:14.768Z,12.20
2018-06-05T14:24:41.898Z,13.20
2018-06-05T14:27:09.011Z,12.13
2018-06-05T14:29:36.111Z,13.17
2018-06-05T14:32:03.292Z,11.23
2018-06-05T14:34:30.424Z,13.63
2018-06-05T14:36:57.561Z,16.27
2018-06-05T14:39:24.735Z,13.97
2018-06-05T14:41:51.861Z,18.83
2018-06-05T14:44:18.984Z,13.57
2018-06-05T14:46:46.172Z,12.63
2018-06-05T14:49:13.272Z,11.87
2018-06-05T14:51:40.973Z,12.20
2018-06-05T14:54:08.216Z,13.60
2018-06-05T14:56:35.315Z,11.40
2018-06-05T14:59:02.554Z,11.73
2018-06-05T15:01:29.739Z,14.43
2018-06-05T15:03:56.850Z,11.57
2018-06-05T15:06:24.004Z,13.60
2018-06-05T15:08:51.270Z,11.10
2018-06-05T15:11:18.427Z,11.77
2018-06-05T15:13:45.622Z,10.57
2018-06-05T15:16:12.777Z,9.33
2018-06-05T15:18:39.900Z,10.38
2018-06-05T15:21:07.014Z,8.93
2018-06-05T15:23:34.222Z,10.58
2018-06-05T15:26:01.423Z,10.72
2018-06-05T15:28:28.675Z,8.33
2018-06-05T15:30:55.963Z,9.20
2018-06-05T15:33:23.062Z,9.28
2018-06-05T15:35:50.212Z,11.88
2018-06-05T15:38:17.483Z,12.13
2018-06-05T15:40:44.563Z,9.00
2018-06-05T15:43:11.650Z,11.08
2018-06-05T15:45:39.391Z,6.70
2018-06-05T15:48:06.523Z,7.78
2018-06-05T15:50:33.714Z,9.55
2018-06-05T15:53:00.891Z,9.23
2018-06-05T15:55:27.959Z,8.08
2018-06-05T15:57:55.057Z,8.35
2018-06-05T16:00:22.276Z,8.83
2018-06-05T16:02:49.466Z,8.50
2018-06-05T16:05:16.629Z,9.43
2018-06-05T16:07:43.823Z,9.58
2018-06-05T16:10:10.933Z,14.47
2018-06-05T16:12:38.135Z,10.57
2018-06-05T16:15:05.399Z,10.23
2018-06-05T16:17:32.515Z,10.67
2018-06-05T16:19:59.756Z,10.70
2018-06-05T16:22:27.013Z,11.73
2018-06-05T16:24:54.129Z,12.20
2018-06-05T16:27:21.331Z,11.63
2018-06-05T16:29:48.526Z,11.53
2018-06-05T16:32:16.883Z,11.13
2018-06-05T16:34:43.976Z,12.50
2018-06-05T16:37:11.127Z,11.70
2018-06-05T16:39:38.352Z,12.37
2018-06-05T16:42:05.547Z,11.70
2018-06-05T16:44:32.721Z,10.50
2018-06-05T16:46:59.827Z,9.73
2018-06-05T16:49:26.980Z,16.30
2018-06-05T16:51:55.096Z,13.10
2018-06-05T16:56:56.058Z,11.30
2018-06-05T16:59:23.160Z,11.30
2018-06-05T17:01:50.297Z,10.63
2018-06-05T17:04:17.603Z,9.73
2018-06-05T17:06:44.985Z,11.23
2018-06-05T17:09:12.109Z,10.30
2018-06-05T17:11:39.268Z,11.33
2018-06-05T17:14:06.384Z,10.07
2018-06-05T17:16:33.809Z,9.90
2018-06-05T17:19:01.051Z,12.13
2018-06-05T17:21:28.175Z,10.77
2018-06-05T17:23:55.255Z,9.90
2018-06-05T17:26:22.663Z,11.13
2018-06-05T17:28:49.853Z,13.07
2018-06-05T17:31:16.976Z,11.73
2018-06-05T17:33:44.140Z,13.13
2018-06-05T17:36:11.851Z,12.30
2018-06-05T17:38:38.979Z,9.37
2018-06-05T17:41:06.206Z,12.17
2018-06-05T17:43:34.630Z,11.30
2018-06-05T17:46:01.712Z,10.67
2018-06-05T17:48:29.167Z,13.13
2018-06-05T17:50:56.302Z,10.23
2018-06-05T17:53:23.489Z,10.37
2018-06-05T17:55:50.679Z,11.00
2018-06-05T17:58:17.794Z,12.30
2018-06-05T18:00:44.911Z,11.83
2018-06-05T18:03:12.070Z,13.77
2018-06-05T18:05:39.296Z,10.93
2018-06-05T18:08:06.480Z,9.33
2018-06-05T18:10:33.641Z,9.60
2018-06-05T18:13:00.775Z,8.73
2018-06-05T18:15:27.903Z,9.37
2018-06-05T18:17:55.148Z,11.57
2018-06-05T18:20:22.331Z,9.37
2018-06-05T18:22:49.496Z,8.20
2018-06-05T18:25:16.686Z,8.17
2018-06-05T18:27:43.807Z,7.67
2018-06-05T18:30:10.978Z,7.03
2018-06-05T18:32:38.258Z,6.40
2018-06-05T18:35:05.359Z,7.17
2018-06-05T18:37:32.446Z,6.17
2018-06-05T18:39:59.629Z,3.17
2018-06-05T18:42:26.808Z,2.80
2018-06-05T18:44:53.979Z,6.10
2018-06-05T18:47:21.156Z,2.47
2018-06-05T18:49:48.274Z,2.23
2018-06-05T18:52:15.382Z,4.13
2018-06-05T18:54:42.631Z,2.43
2018-06-05T18:57:09.798Z,3.20
2018-06-05T18:59:36.874Z,2.50
2018-06-05T19:02:04.045Z,3.10
2018-06-05T19:04:31.149Z,2.10
2018-06-05T19:06:58.340Z,3.90
2018-06-05T19:09:25.895Z,3.67
2018-06-05T19:11:52.989Z,2.87
2018-06-05T19:14:20.087Z,3.70
2018-06-05T19:16:47.227Z,3.40
2018-06-05T19:19:14.569Z,4.17
2018-06-05T19:21:41.851Z,3.10
2018-06-05T19:24:09.122Z,3.30
2018-06-05T19:26:36.228Z,3.20
2018-06-05T19:29:03.384Z,2.43
2018-06-05T19:31:30.625Z,5.37
2018-06-05T19:33:57.809Z,3.47
2018-06-05T19:36:24.917Z,3.47
2018-06-05T19:38:52.108Z,3.77
2018-06-05T19:41:19.235Z,3.60
2018-06-05T19:43:46.387Z,4.03
2018-06-05T19:46:13.575Z,2.47
2018-06-05T19:48:40.738Z,4.70
2018-06-05T19:51:07.935Z,2.57
2018-06-05T19:53:35.157Z,3.23
2018-06-05T19:56:02.265Z,3.30
2018-06-05T19:58:29.372Z,3.73
2018-06-05T20:00:56.644Z,3.73
2018-06-05T20:03:23.756Z,2.50
2018-06-05T20:05:50.852Z,2.10
2018-06-05T20:08:18.402Z,3.27
2018-06-05T20:10:45.550Z,3.87
2018-06-05T20:13:12.642Z,2.47
2018-06-05T20:15:39.801Z,1.90
2018-06-05T20:18:06.912Z,2.60
2018-06-05T20:20:34.080Z,1.90
2018-06-05T20:23:01.247Z,2.50
2018-06-05T20:25:28.351Z,2.37
2018-06-05T20:27:55.450Z,3.40
2018-06-05T20:30:22.650Z,2.93
2018-06-05T20:32:49.724Z,2.70
2018-06-05T20:35:16.851Z,4.40
2018-06-05T20:37:44.004Z,2.37
2018-06-05T20:40:11.100Z,3.60
2018-06-05T20:42:38.209Z,4.27
2018-06-05T20:45:20.588Z,6.10
2018-06-05T20:47:47.683Z,3.93
2018-06-05T20:50:14.870Z,3.97
2018-06-05T20:52:42.028Z,2.33
2018-06-05T20:55:09.257Z,2.90
2018-06-05T20:57:36.388Z,1.73
2018-06-05T21:00:04.444Z,2.73
2018-06-05T21:02:31.589Z,2.67
2018-06-05T21:04:58.686Z,2.23
2018-06-05T21:07:25.935Z,4.27
2018-06-05T21:09:53.017Z,2.03
2018-06-05T21:12:20.151Z,3.30
2018-06-05T21:14:47.323Z,3.57
2018-06-05T21:17:14.460Z,4.57
2018-06-05T21:19:41.668Z,2.33
2018-06-05T21:22:08.831Z,2.13
2018-06-05T21:24:35.896Z,4.43
2018-06-05T21:27:02.985Z,3.03
2018-06-05T21:29:30.133Z,3.20
2018-06-05T21:31:57.616Z,4.77
2018-06-05T21:34:24.746Z,4.57
2018-06-05T21:36:51.915Z,2.27
2018-06-05T21:39:19.021Z,2.10
2018-06-05T21:41:46.145Z,2.40
2018-06-05T21:44:13.420Z,2.20
2018-06-05T21:46:40.539Z,1.93
2018-06-05T21:49:07.650Z,2.97
2018-06-05T21:51:34.812Z,1.70
2018-06-05T21:54:01.920Z,2.47
2018-06-05T21:56:29.116Z,2.70
2018-06-05T21:58:56.378Z,5.00
2018-06-05T22:01:23.481Z,2.20
2018-06-05T22:03:50.581Z,1.97
2018-06-05T22:06:17.727Z,2.20
2018-06-05T22:08:44.965Z,2.57
2018-06-05T22:11:12.052Z,2.20
2018-06-05T22:13:39.631Z,3.27
2018-06-05T22:16:06.852Z,2.70
2018-06-05T22:18:33.950Z,2.43
2018-06-05T22:21:01.188Z,2.83
2018-06-05T22:23:28.306Z,2.33
2018-06-05T22:25:55.419Z,2.33
2018-06-05T22:28:22.619Z,3.53
2018-06-05T22:30:49.840Z,2.43
2018-06-05T22:33:17.035Z,3.93
2018-06-05T22:35:44.201Z,2.97
2018-06-05T22:38:11.328Z,3.33
2018-06-05T22:40:38.445Z,2.40
2018-06-05T22:43:05.983Z,3.27
2018-06-05T22:45:33.154Z,3.63
2018-06-05T22:48:00.278Z,2.70
2018-06-05T22:50:27.485Z,3.13
2018-06-05T22:52:54.603Z,4.03
2018-06-05T22:55:21.737Z,3.13
2018-06-05T22:57:49.029Z,3.33
2018-06-05T23:00:22.195Z,3.23
2018-06-05T23:02:49.342Z,2.53
2018-06-05T23:05:16.483Z,2.50
2018-06-05T23:07:43.627Z,3.47
2018-06-05T23:10:10.898Z,2.87
2018-06-05T23:12:38.045Z,2.80
2018-06-05T23:15:05.148Z,4.10
2018-06-05T23:17:32.592Z,2.93
2018-06-05T23:19:59.702Z,5.57
2018-06-05T23:22:27.003Z,4.23
2018-06-05T23:24:54.176Z,3.30
2018-06-05T23:27:21.271Z,3.67
2018-06-05T23:29:48.494Z,2.60
2018-06-05T23:32:15.650Z,2.43
2018-06-05T23:34:42.892Z,3.17
2018-06-05T23:37:09.992Z,3.03
2018-06-05T23:39:37.146Z,3.20
2018-06-05T23:42:04.284Z,4.03
2018-06-05T23:44:31.399Z,3.30
2018-06-05T23:46:59.042Z,4.03
2018-06-05T23:49:26.162Z,2.97
2018-06-05T23:51:57.889Z,3.20
2018-06-05T23:54:25.213Z,3.83
2018-06-05T23:56:52.338Z,6.30
2018-06-05T23:59:19.529Z,4.77
